createdAt,value
2023-04-25T00:01:53.516Z,4.35
2023-04-25T00:04:20.484Z,6.30
2023-04-25T00:06:47.473Z,5.03
2023-04-25T00:09:14.162Z,4.78
2023-04-25T00:11:41.680Z,5.43
2023-04-25T00:14:08.771Z,5.70
2023-04-25T00:16:36.540Z,4.18
2023-04-25T00:19:04.331Z,5.47
2023-04-25T00:21:32.596Z,4.85
2023-04-25T00:23:59.425Z,5.07
2023-04-25T00:26:26.675Z,5.43
2023-04-25T00:28:53.522Z,5.22
2023-04-25T00:31:20.266Z,5.45
2023-04-25T00:33:46.974Z,4.18
2023-04-25T00:36:13.746Z,4.97
2023-04-25T00:38:40.949Z,5.32
2023-04-25T00:41:08.597Z,4.82
2023-04-25T00:43:37.456Z,4.68
2023-04-25T00:46:04.738Z,4.60
2023-04-25T00:48:31.442Z,4.32
2023-04-25T00:51:00.201Z,4.78
2023-04-25T00:53:29.273Z,4.40
2023-04-25T00:55:56.794Z,5.50
2023-04-25T00:58:23.737Z,4.15
2023-04-25T01:00:53.111Z,4.90
2023-04-25T01:03:23.622Z,5.35
2023-04-25T01:05:51.382Z,3.92
2023-04-25T01:08:18.048Z,5.13
2023-04-25T01:10:44.841Z,5.20
2023-04-25T01:13:11.756Z,4.40
2023-04-25T01:15:38.549Z,4.13
2023-04-25T01:18:07.218Z,5.18
2023-04-25T01:20:34.659Z,4.15
2023-04-25T01:23:03.362Z,4.30
2023-04-25T01:25:31.777Z,4.85
2023-04-25T01:27:59.633Z,5.18
2023-04-25T01:30:30.583Z,4.75
2023-04-25T01:32:58.599Z,4.50
2023-04-25T01:35:25.999Z,4.30
2023-04-25T01:37:54.579Z,5.30
2023-04-25T01:40:23.209Z,3.42
2023-04-25T01:42:52.189Z,4.05
2023-04-25T01:45:19.862Z,4.60
2023-04-25T01:47:50.157Z,4.90
2023-04-25T01:50:19.941Z,4.07
2023-04-25T01:52:46.707Z,4.00
2023-04-25T01:55:14.202Z,3.65
2023-04-25T01:58:04.691Z,4.05
2023-04-25T02:00:51.288Z,3.97
2023-04-25T02:03:18.062Z,3.70
2023-04-25T02:05:44.806Z,3.92
2023-04-25T02:08:13.160Z,4.07
2023-04-25T02:10:39.978Z,4.72
2023-04-25T02:13:18.812Z,3.72
2023-04-25T02:16:14.261Z,3.47
2023-04-25T02:18:41.026Z,3.83
2023-04-25T02:21:07.786Z,3.85
2023-04-25T02:23:34.725Z,4.15
2023-04-25T02:26:01.403Z,3.08
2023-04-25T02:28:28.197Z,3.67
2023-04-25T02:30:55.353Z,3.80
2023-04-25T02:33:25.006Z,3.33
2023-04-25T02:35:51.656Z,3.72
2023-04-25T02:38:18.452Z,4.05
2023-04-25T02:40:45.295Z,3.55
2023-04-25T02:43:12.025Z,3.65
2023-04-25T02:45:38.775Z,3.47
2023-04-25T02:48:05.975Z,4.55
2023-04-25T02:50:32.818Z,3.85
2023-04-25T02:53:00.018Z,3.63
2023-04-25T02:55:32.231Z,4.22
2023-04-25T02:58:01.558Z,5.53
2023-04-25T03:00:44.297Z,4.78
2023-04-25T03:03:11.963Z,3.75
2023-04-25T03:05:38.863Z,4.47
2023-04-25T03:08:05.820Z,4.45
2023-04-25T03:10:34.033Z,3.97
2023-04-25T03:13:04.578Z,4.85
2023-04-25T03:15:32.183Z,4.47
2023-04-25T03:17:58.966Z,4.22
2023-04-25T03:20:25.726Z,3.97
2023-04-25T03:22:52.627Z,3.95
2023-04-25T03:25:19.523Z,4.47
2023-04-25T03:27:46.835Z,4.88
2023-04-25T03:30:13.757Z,5.68
2023-04-25T03:32:42.062Z,4.35
2023-04-25T03:35:09.197Z,4.03
2023-04-25T03:37:35.935Z,4.90
2023-04-25T03:40:03.645Z,5.25
2023-04-25T03:42:50.380Z,5.18
2023-04-25T03:45:18.433Z,5.20
2023-04-25T03:47:45.189Z,4.45
2023-04-25T03:50:11.985Z,4.97
2023-04-25T03:52:38.653Z,3.88
2023-04-25T03:55:06.264Z,6.38
2023-04-25T03:57:33.004Z,4.22
2023-04-25T03:59:59.738Z,4.53
2023-04-25T04:02:29.515Z,4.97
2023-04-25T04:04:57.794Z,4.95
2023-04-25T04:07:24.867Z,4.90
2023-04-25T04:09:54.826Z,4.63
2023-04-25T04:12:27.633Z,4.93
2023-04-25T04:14:54.409Z,5.47
2023-04-25T04:17:21.539Z,5.50
2023-04-25T04:19:48.697Z,4.30
2023-04-25T04:22:18.965Z,4.75
2023-04-25T04:24:47.462Z,3.95
2023-04-25T04:27:20.392Z,4.55
2023-04-25T04:30:13.459Z,4.13
2023-04-25T04:32:53.644Z,4.38
2023-04-25T04:35:21.506Z,5.25
2023-04-25T04:37:49.148Z,6.03
2023-04-25T04:40:18.485Z,4.20
2023-04-25T04:43:05.629Z,4.82
2023-04-25T04:45:46.265Z,5.00
2023-04-25T04:48:15.007Z,5.53
2023-04-25T04:51:14.966Z,4.03
2023-04-25T04:54:04.464Z,4.38
2023-04-25T04:56:54.423Z,4.50
2023-04-25T04:59:29.896Z,4.53
2023-04-25T05:02:22.840Z,5.13
2023-04-25T05:05:00.251Z,4.88
2023-04-25T05:07:37.414Z,5.10
2023-04-25T05:10:30.281Z,4.43
2023-04-25T05:12:56.920Z,5.72
2023-04-25T05:15:46.769Z,5.20
2023-04-25T05:18:19.840Z,5.35
2023-04-25T05:21:17.463Z,3.97
2023-04-25T05:23:56.676Z,3.60
2023-04-25T05:26:43.275Z,4.60
2023-04-25T05:29:21.951Z,4.43
2023-04-25T05:32:02.589Z,4.25
2023-04-25T05:34:30.214Z,4.78
2023-04-25T05:37:02.597Z,5.45
2023-04-25T05:39:30.609Z,4.25
2023-04-25T05:42:27.106Z,5.45
2023-04-25T05:44:56.598Z,4.18
2023-04-25T05:47:43.523Z,3.90
2023-04-25T05:50:16.313Z,4.68
2023-04-25T05:52:55.241Z,3.95
2023-04-25T05:55:33.097Z,5.78
2023-04-25T05:58:02.155Z,4.60
2023-04-25T06:00:29.505Z,3.97
2023-04-25T06:02:57.014Z,4.65
2023-04-25T06:05:23.961Z,4.35
2023-04-25T06:07:50.965Z,4.95
2023-04-25T06:10:17.692Z,4.55
2023-04-25T06:12:44.513Z,4.53
2023-04-25T06:15:26.643Z,3.95
2023-04-25T06:17:55.970Z,4.70
2023-04-25T06:20:24.985Z,3.33
2023-04-25T06:22:53.623Z,4.35
2023-04-25T06:25:22.543Z,4.05
2023-04-25T06:27:49.275Z,2.90
2023-04-25T06:30:19.238Z,3.50
2023-04-25T06:32:46.149Z,3.38
2023-04-25T06:35:14.012Z,3.38
2023-04-25T06:37:41.548Z,3.17
2023-04-25T06:40:09.356Z,3.08
2023-04-25T06:42:36.220Z,4.13
2023-04-25T06:45:22.886Z,3.30
2023-04-25T06:47:49.835Z,3.20
2023-04-25T06:50:16.686Z,2.78
2023-04-25T06:52:43.434Z,2.45
2023-04-25T06:55:10.641Z,3.08
2023-04-25T06:57:53.104Z,3.17
2023-04-25T07:00:45.716Z,3.50
2023-04-25T07:03:13.024Z,2.97
2023-04-25T07:05:40.140Z,3.20
2023-04-25T07:08:06.989Z,2.72
2023-04-25T07:10:33.750Z,2.97
2023-04-25T07:13:00.681Z,1.90
2023-04-25T07:15:27.382Z,2.35
2023-04-25T07:17:54.119Z,2.95
2023-04-25T07:20:20.929Z,2.80
2023-04-25T07:22:47.670Z,2.30
2023-04-25T07:25:14.389Z,2.30
2023-04-25T07:27:41.814Z,2.53
2023-04-25T07:30:17.764Z,2.75
2023-04-25T07:32:44.507Z,2.42
2023-04-25T07:35:11.307Z,2.35
2023-04-25T07:37:38.488Z,2.15
2023-04-25T07:40:16.695Z,2.40
2023-04-25T07:42:47.445Z,3.45
2023-04-25T07:45:18.352Z,1.92
2023-04-25T07:47:45.794Z,1.92
2023-04-25T07:50:13.054Z,2.00
2023-04-25T07:52:39.850Z,2.97
2023-04-25T07:55:18.758Z,2.33
2023-04-25T07:58:00.115Z,1.90
2023-04-25T08:00:30.006Z,2.17
2023-04-25T08:03:17.060Z,3.83
2023-04-25T08:05:44.522Z,3.03
2023-04-25T08:08:12.807Z,1.98
2023-04-25T08:10:39.629Z,2.90
2023-04-25T08:13:06.336Z,2.72
2023-04-25T08:15:33.346Z,2.78
2023-04-25T08:18:00.588Z,2.03
2023-04-25T08:20:27.454Z,1.77
2023-04-25T08:22:59.907Z,1.67
2023-04-25T08:25:32.840Z,1.60
2023-04-25T08:28:00.613Z,1.85
2023-04-25T08:30:28.034Z,2.25
2023-04-25T08:32:54.923Z,2.53
2023-04-25T08:35:42.019Z,1.92
2023-04-25T08:38:08.748Z,2.00
2023-04-25T08:40:40.688Z,2.28
2023-04-25T08:43:15.801Z,2.58
2023-04-25T08:45:43.628Z,2.00
2023-04-25T08:48:17.450Z,2.70
2023-04-25T08:50:55.966Z,2.08
2023-04-25T08:53:28.744Z,2.08
2023-04-25T08:56:00.939Z,1.73
2023-04-25T08:58:28.625Z,1.77
2023-04-25T09:00:55.530Z,1.80
2023-04-25T09:03:25.792Z,1.27
2023-04-25T09:05:53.707Z,1.70
2023-04-25T09:08:21.619Z,2.75
2023-04-25T09:10:48.677Z,1.98
2023-04-25T09:13:25.918Z,2.35
2023-04-25T09:16:11.137Z,1.25
2023-04-25T09:18:49.061Z,2.63
2023-04-25T09:21:16.976Z,1.40
2023-04-25T09:23:49.217Z,1.52
2023-04-25T09:26:18.962Z,1.33
2023-04-25T09:28:48.820Z,1.67
2023-04-25T09:31:27.056Z,2.13
2023-04-25T09:34:02.396Z,2.28
2023-04-25T09:36:35.613Z,1.40
2023-04-25T09:39:23.164Z,1.90
2023-04-25T09:42:04.553Z,1.65
2023-04-25T09:44:32.466Z,1.50
2023-04-25T09:47:00.106Z,1.38
2023-04-25T09:49:29.359Z,1.80
2023-04-25T09:52:15.722Z,2.53
2023-04-25T09:54:52.525Z,1.13
2023-04-25T09:57:26.783Z,1.20
2023-04-25T09:59:57.025Z,1.45
2023-04-25T10:02:28.209Z,1.20
2023-04-25T10:05:04.557Z,1.30
2023-04-25T10:07:39.329Z,1.85
2023-04-25T10:10:13.668Z,1.92
2023-04-25T10:12:41.451Z,1.25
2023-04-25T10:15:09.996Z,1.00
2023-04-25T10:17:36.779Z,1.60
2023-04-25T10:20:10.762Z,1.45
2023-04-25T10:22:47.180Z,1.67
2023-04-25T10:25:14.688Z,1.23
2023-04-25T10:27:41.968Z,1.45
2023-04-25T10:30:17.063Z,1.23
2023-04-25T10:32:44.607Z,1.80
2023-04-25T10:35:20.082Z,1.60
2023-04-25T10:38:15.330Z,2.42
2023-04-25T10:40:42.158Z,1.10
2023-04-25T10:43:40.828Z,1.67
2023-04-25T10:46:28.683Z,1.73
2023-04-25T10:48:58.638Z,1.80
2023-04-25T10:51:29.513Z,1.33
2023-04-25T10:54:06.833Z,1.73
2023-04-25T10:56:45.563Z,1.75
2023-04-25T10:59:18.551Z,1.23
2023-04-25T11:01:48.356Z,1.20
2023-04-25T11:04:35.342Z,1.27
2023-04-25T11:07:40.503Z,1.00
2023-04-25T11:10:07.919Z,1.83
2023-04-25T11:12:34.921Z,1.38
2023-04-25T11:15:06.760Z,1.30
2023-04-25T11:17:34.204Z,1.58
2023-04-25T11:20:01.853Z,1.30
2023-04-25T11:22:29.574Z,1.00
2023-04-25T11:24:56.315Z,1.23
2023-04-25T11:27:23.222Z,1.30
2023-04-25T11:29:50.315Z,1.40
2023-04-25T11:32:21.372Z,1.20
2023-04-25T11:34:48.450Z,1.50
2023-04-25T11:37:15.681Z,0.98
2023-04-25T11:39:49.128Z,1.52
2023-04-25T11:42:15.916Z,1.10
2023-04-25T11:44:42.694Z,1.63
2023-04-25T11:47:09.505Z,1.65
2023-04-25T11:49:36.747Z,1.58
2023-04-25T11:52:04.089Z,1.40
2023-04-25T11:54:31.077Z,1.85
2023-04-25T11:56:57.846Z,1.63
2023-04-25T11:59:26.449Z,1.70
2023-04-25T12:01:53.667Z,1.58
2023-04-25T12:04:26.204Z,1.58
2023-04-25T12:06:55.922Z,1.50
2023-04-25T12:09:31.433Z,1.90
2023-04-25T12:12:00.343Z,1.60
2023-04-25T12:14:35.121Z,1.58
2023-04-25T12:17:04.919Z,1.40
2023-04-25T12:19:37.277Z,1.77
2023-04-25T12:22:20.182Z,2.22
2023-04-25T12:24:47.051Z,1.30
2023-04-25T12:27:20.960Z,1.13
2023-04-25T12:29:58.591Z,1.88
2023-04-25T12:32:26.094Z,1.80
2023-04-25T12:34:55.538Z,1.50
2023-04-25T12:37:22.364Z,1.50
2023-04-25T12:39:49.101Z,1.65
2023-04-25T12:42:16.077Z,1.98
2023-04-25T12:44:42.998Z,2.40
2023-04-25T12:47:09.936Z,1.90
2023-04-25T12:49:36.641Z,1.90
2023-04-25T12:52:03.363Z,2.38
2023-04-25T12:54:30.204Z,2.50
2023-04-25T12:56:57.659Z,2.33
2023-04-25T12:59:24.366Z,2.00
2023-04-25T13:01:51.110Z,1.90
2023-04-25T13:04:18.809Z,1.65
2023-04-25T13:06:45.843Z,1.98
2023-04-25T13:09:13.427Z,1.50
2023-04-25T13:11:41.436Z,1.85
2023-04-25T13:14:08.825Z,2.15
2023-04-25T13:16:35.632Z,1.35
2023-04-25T13:19:02.468Z,1.98
2023-04-25T13:21:33.491Z,1.80
2023-04-25T13:24:00.435Z,1.25
2023-04-25T13:26:27.196Z,1.35
2023-04-25T13:28:56.753Z,2.10
2023-04-25T13:31:23.425Z,1.65
2023-04-25T13:33:50.394Z,1.30
2023-04-25T13:36:17.282Z,1.60
2023-04-25T13:38:45.123Z,1.20
2023-04-25T13:41:16.526Z,1.10
2023-04-25T13:43:43.242Z,1.00
2023-04-25T13:46:24.771Z,0.75
2023-04-25T13:49:06.282Z,1.30
2023-04-25T13:51:38.719Z,0.70
2023-04-25T13:54:05.626Z,0.90
2023-04-25T13:56:34.438Z,1.02
2023-04-25T13:59:01.155Z,1.27
2023-04-25T14:01:29.065Z,1.15
2023-04-25T14:03:56.068Z,1.35
2023-04-25T14:06:24.853Z,1.45
2023-04-25T14:08:51.737Z,2.58
2023-04-25T14:11:19.201Z,1.42
2023-04-25T14:13:47.108Z,1.40
2023-04-25T14:16:13.920Z,1.10
2023-04-25T14:18:40.850Z,1.10
2023-04-25T14:21:07.554Z,1.33
2023-04-25T14:23:34.281Z,1.23
2023-04-25T14:26:01.067Z,1.38
2023-04-25T14:28:27.761Z,1.63
2023-04-25T14:30:54.476Z,1.38
2023-04-25T14:33:21.174Z,1.60
2023-04-25T14:35:47.849Z,1.33
2023-04-25T14:38:15.169Z,2.22
2023-04-25T14:40:43.375Z,2.47
2023-04-25T14:43:09.996Z,2.33
2023-04-25T14:45:37.883Z,1.70
2023-04-25T14:48:04.965Z,1.90
2023-04-25T14:50:31.721Z,1.92
2023-04-25T14:53:00.075Z,1.50
2023-04-25T14:55:27.608Z,1.33
2023-04-25T14:57:57.770Z,0.95
2023-04-25T15:00:26.107Z,1.50
2023-04-25T15:02:53.059Z,1.55
2023-04-25T15:05:21.055Z,1.30
2023-04-25T15:07:48.757Z,1.35
2023-04-25T15:10:16.883Z,1.50
2023-04-25T15:12:46.918Z,1.98
2023-04-25T15:15:22.485Z,1.65
2023-04-25T15:17:52.404Z,1.27
2023-04-25T15:20:19.198Z,1.00
2023-04-25T15:22:46.669Z,1.42
2023-04-25T15:25:13.359Z,1.08
2023-04-25T15:27:44.826Z,1.10
2023-04-25T15:30:16.394Z,1.40
2023-04-25T15:32:44.641Z,1.50
2023-04-25T15:35:12.122Z,0.80
2023-04-25T15:37:39.022Z,0.98
2023-04-25T15:40:12.133Z,0.95
2023-04-25T15:42:43.728Z,0.93
2023-04-25T15:45:12.118Z,0.95
2023-04-25T15:47:39.344Z,1.15
2023-04-25T15:50:09.431Z,1.85
2023-04-25T15:52:37.337Z,1.00
2023-04-25T15:55:05.687Z,1.38
2023-04-25T15:57:35.357Z,1.00
2023-04-25T16:00:05.378Z,1.35
2023-04-25T16:02:42.470Z,1.13
2023-04-25T16:05:11.482Z,1.10
2023-04-25T16:07:42.993Z,0.80
2023-04-25T16:10:11.682Z,0.77
2023-04-25T16:12:40.610Z,1.08
2023-04-25T16:15:08.315Z,0.95
2023-04-25T16:17:35.334Z,0.70
2023-04-25T16:20:05.400Z,0.85
2023-04-25T16:22:32.320Z,0.80
2023-04-25T16:24:58.995Z,0.98
2023-04-25T16:27:25.699Z,1.40
2023-04-25T16:29:52.484Z,0.77
2023-04-25T16:32:19.620Z,1.48
2023-04-25T16:34:46.321Z,1.15
2023-04-25T16:37:13.118Z,1.52
2023-04-25T16:39:39.952Z,1.08
2023-04-25T16:42:06.829Z,1.35
2023-04-25T16:44:33.538Z,1.13
2023-04-25T16:47:00.407Z,1.10
2023-04-25T16:49:27.220Z,0.90
2023-04-25T16:51:54.007Z,1.25
2023-04-25T16:54:20.789Z,1.33
2023-04-25T16:56:47.568Z,1.25
2023-04-25T16:59:14.248Z,1.38
2023-04-25T17:01:40.944Z,0.63
2023-04-25T17:04:07.822Z,0.90
2023-04-25T17:06:35.216Z,0.80
2023-04-25T17:09:02.084Z,0.85
2023-04-25T17:11:29.249Z,0.90
2023-04-25T17:13:56.043Z,0.80
2023-04-25T17:16:23.406Z,0.80
2023-04-25T17:18:51.329Z,1.02
2023-04-25T17:21:18.751Z,0.90
2023-04-25T17:23:48.611Z,0.90
2023-04-25T17:26:15.549Z,0.75
2023-04-25T17:28:45.000Z,1.13
2023-04-25T17:31:12.405Z,1.10
2023-04-25T17:33:39.508Z,0.93
2023-04-25T17:36:07.200Z,1.48
2023-04-25T17:38:35.686Z,0.80
2023-04-25T17:41:02.817Z,0.93
2023-04-25T17:43:29.865Z,1.25
2023-04-25T17:45:56.941Z,0.82
2023-04-25T17:48:23.742Z,1.10
2023-04-25T17:50:51.262Z,1.00
2023-04-25T17:53:18.018Z,0.80
2023-04-25T17:55:44.848Z,1.05
2023-04-25T17:58:11.709Z,0.90
2023-04-25T18:00:39.306Z,1.20
2023-04-25T18:03:06.808Z,0.90
2023-04-25T18:05:33.789Z,0.95
2023-04-25T18:08:00.834Z,1.13
2023-04-25T18:10:28.107Z,1.08
2023-04-25T18:12:54.889Z,1.17
2023-04-25T18:15:23.012Z,0.90
2023-04-25T18:17:50.003Z,0.70
2023-04-25T18:20:17.996Z,0.82
2023-04-25T18:22:45.570Z,1.27
2023-04-25T18:25:13.886Z,1.20
2023-04-25T18:27:41.606Z,1.27
2023-04-25T18:30:11.096Z,1.13
2023-04-25T18:32:38.490Z,1.00
2023-04-25T18:35:06.305Z,1.15
2023-04-25T18:37:33.078Z,0.88
2023-04-25T18:39:59.904Z,1.20
2023-04-25T18:42:26.596Z,1.13
2023-04-25T18:44:53.331Z,0.98
2023-04-25T18:47:20.132Z,1.13
2023-04-25T18:49:47.927Z,1.25
2023-04-25T18:52:16.096Z,1.55
2023-04-25T18:54:43.297Z,1.67
2023-04-25T18:57:11.551Z,1.45
2023-04-25T18:59:38.350Z,1.10
2023-04-25T19:02:05.824Z,1.40
2023-04-25T19:04:36.772Z,1.77
2023-04-25T19:07:04.432Z,2.50
2023-04-25T19:09:31.690Z,2.28
2023-04-25T19:11:58.852Z,1.20
2023-04-25T19:14:27.701Z,1.10
2023-04-25T19:16:54.800Z,1.35
2023-04-25T19:19:21.953Z,0.98
2023-04-25T19:21:50.697Z,1.25
2023-04-25T19:24:17.700Z,1.40
2023-04-25T19:26:44.776Z,1.23
2023-04-25T19:29:15.917Z,2.00
2023-04-25T19:31:45.241Z,0.93
2023-04-25T19:34:13.642Z,1.17
2023-04-25T19:36:44.097Z,2.25
2023-04-25T19:39:11.655Z,1.35
2023-04-25T19:41:39.310Z,1.55
2023-04-25T19:44:09.158Z,1.92
2023-04-25T19:46:37.602Z,1.65
2023-04-25T19:49:08.000Z,1.55
2023-04-25T19:51:39.614Z,0.95
2023-04-25T19:54:06.752Z,1.38
2023-04-25T19:56:34.405Z,1.00
2023-04-25T19:59:01.538Z,1.25
2023-04-25T20:01:28.616Z,1.60
2023-04-25T20:03:56.654Z,2.30
2023-04-25T20:06:24.077Z,1.13
2023-04-25T20:08:54.032Z,2.90
2023-04-25T20:11:21.835Z,2.17
2023-04-25T20:13:48.736Z,1.20
2023-04-25T20:16:20.380Z,1.20
2023-04-25T20:18:48.572Z,1.40
2023-04-25T20:21:17.259Z,1.30
2023-04-25T20:23:44.731Z,1.95
2023-04-25T20:26:13.171Z,1.90
2023-04-25T20:28:41.864Z,1.90
2023-04-25T20:31:11.284Z,1.35
2023-04-25T20:33:38.945Z,1.20
2023-04-25T20:36:06.595Z,1.15
2023-04-25T20:38:33.666Z,1.35
2023-04-25T20:41:00.696Z,1.55
2023-04-25T20:43:28.069Z,1.20
2023-04-25T20:45:55.272Z,1.30
2023-04-25T20:48:22.759Z,1.58
2023-04-25T20:50:49.963Z,1.42
2023-04-25T20:53:16.942Z,2.65
2023-04-25T20:55:44.288Z,1.27
2023-04-25T20:58:11.254Z,1.50
2023-04-25T21:00:39.059Z,1.38
2023-04-25T21:03:07.316Z,1.05
2023-04-25T21:05:34.309Z,1.42
2023-04-25T21:08:02.822Z,1.77
2023-04-25T21:10:30.081Z,1.70
2023-04-25T21:12:57.921Z,1.13
2023-04-25T21:15:25.464Z,1.20
2023-04-25T21:17:52.976Z,1.70
2023-04-25T21:20:22.029Z,1.52
2023-04-25T21:22:53.927Z,1.90
2023-04-25T21:25:30.077Z,1.48
2023-04-25T21:27:58.463Z,1.60
2023-04-25T21:30:26.438Z,1.52
2023-04-25T21:32:53.301Z,1.42
2023-04-25T21:35:22.305Z,1.52
2023-04-25T21:37:50.383Z,1.67
2023-04-25T21:40:17.753Z,1.35
2023-04-25T21:42:46.831Z,1.80
2023-04-25T21:45:13.576Z,1.42
2023-04-25T21:47:41.074Z,1.10
2023-04-25T21:50:08.528Z,2.15
2023-04-25T21:52:38.683Z,1.42
2023-04-25T21:55:11.140Z,1.60
2023-04-25T21:57:38.063Z,2.20
2023-04-25T22:00:20.114Z,1.55
2023-04-25T22:02:56.850Z,1.58
2023-04-25T22:05:26.594Z,1.77
2023-04-25T22:07:57.065Z,1.60
2023-04-25T22:10:25.249Z,1.80
2023-04-25T22:12:52.927Z,1.90
2023-04-25T22:15:23.632Z,2.20
2023-04-25T22:17:52.622Z,1.65
2023-04-25T22:20:20.246Z,2.30
2023-04-25T22:22:47.132Z,2.35
2023-04-25T22:25:14.025Z,2.45
2023-04-25T22:27:43.893Z,3.08
2023-04-25T22:30:14.991Z,2.10
2023-04-25T22:32:42.283Z,2.95
2023-04-25T22:35:10.471Z,1.90
2023-04-25T22:37:37.735Z,1.90
2023-04-25T22:40:11.734Z,1.95
2023-04-25T22:42:43.590Z,2.35
2023-04-25T22:45:11.458Z,1.92
2023-04-25T22:47:39.820Z,2.50
2023-04-25T22:50:12.601Z,3.20
2023-04-25T22:52:39.722Z,2.13
2023-04-25T22:55:07.085Z,2.40
2023-04-25T22:57:33.805Z,2.55
2023-04-25T23:00:01.653Z,2.35
2023-04-25T23:02:29.091Z,3.88
2023-04-25T23:04:56.016Z,2.75
2023-04-25T23:07:23.504Z,2.55
2023-04-25T23:09:50.364Z,2.30
2023-04-25T23:12:20.211Z,2.67
2023-04-25T23:14:53.610Z,2.05
2023-04-25T23:17:20.564Z,2.22
2023-04-25T23:19:48.357Z,2.70
2023-04-25T23:22:15.199Z,2.50
2023-04-25T23:24:42.085Z,2.67
2023-04-25T23:27:08.910Z,3.10
2023-04-25T23:29:36.127Z,2.30
2023-04-25T23:32:02.920Z,2.38
2023-04-25T23:34:33.423Z,2.88
2023-04-25T23:37:01.635Z,3.20
2023-04-25T23:39:28.709Z,3.42
2023-04-25T23:41:56.431Z,3.17
2023-04-25T23:44:23.354Z,2.67
2023-04-25T23:46:50.361Z,2.45
2023-04-25T23:49:17.106Z,3.22
2023-04-25T23:51:43.894Z,3.08
2023-04-25T23:54:11.101Z,3.33
2023-04-25T23:56:37.903Z,3.05
2023-04-25T23:59:04.907Z,3.22
